Huvudsida
METAR-TAF:

METAR-TAF

Flygplatser :

Liepāja, Lettland

Starptautiskā lidosta "Liepāja"

latitud: 56-31N, longitud: 021-05E, höjd: 5 m

Aktuellt väderrapport

Denna rapport gjordes för 16 minuter sedan, klockan 03:20 UTC
Vind 3 kt från nordost
Temperatur -1°C
Fuktighet 93%
Tryck 996 hPa
Sikt 10 km eller mer

METAR: EVLA 190320Z AUTO 05003KT 9999 BKN049/// M01/M02 Q0996

Tid: 05:36 (03:36 UTC)

Väderprognos

Denna rapport gjordes för 1 timme och 27 minuter sedan, klockan 02:09 UTC
Prognos gäller från 19 kl. 03 UTC till 20 kl. 03 UTC
Vind 7 kt från ost/nordost
Sikt 10 km eller mer
Brutna moln på en höjd av 3000 ft
Temporärt
från 19 kl. 06 UTC till 19 kl. 12 UTC
Sikt: 3000 m
Brutna moln på en höjd av 700 ft
lätt snö, fuktdis

TAF: EVLA 190209Z 1903/2003 06007KT 9999 BKN030 TEMPO 1906/1912 3000 -SN BR BKN007

Aktuella väderrapporter och prognoser från 4000 flygplatser (METAR- och TAF-rapporter).

De tillgängliga stationerna syns som gula och röda prickar på kartan.

För musen över prickarna för att se namnen på stationerna.

Klicka sedan för att få väderrapporter och prognoser.

För att ändra kartan: Klicka på de gröna knapparna med ett svart kors på för att zooma in; den gröna knappen med ett streck på för att zooma ut; eller på de gröna pilarna för angränsande kartor.


METAR-TAF: